Terminal Aerodrome Forecast
Issued by NWS

Home | Current Version | Previous Version | Text Only | Print | Product List | Glossary On
Versions: 1 2 3 4 5 6 7 8 9 10 11 12 13 14 15 16 17 18 19 20 21 22 23 24 25 26 27 28 29 30
000
FTUS41 KCTP 150928 AAA
TAFBFD
TAF AMD
KBFD 150928Z 1509/1606 00000KT P6SM SCT025
     FM151100 00000KT P6SM BKN025
     FM151300 20007KT P6SM BKN050
     FM152000 21008KT P6SM VCSH BKN025=

USA.gov is the U.S. government's official web portal to all federal, state and local government web resources and services.